createdAt,value
2018-12-01T00:00:22.128Z,7.69
2018-12-01T00:01:22.258Z,7.71
2018-12-01T00:02:22.092Z,7.67
2018-12-01T00:03:22.344Z,7.68
2018-12-01T00:04:22.281Z,7.69
2018-12-01T00:05:22.929Z,7.72
2018-12-01T00:06:22.313Z,7.68
2018-12-01T00:07:22.189Z,7.69
2018-12-01T00:08:22.295Z,7.69
2018-12-01T00:09:22.116Z,7.67
2018-12-01T00:10:22.311Z,7.67
2018-12-01T00:11:22.151Z,7.68
2018-12-01T00:12:22.163Z,7.67
2018-12-01T00:13:22.091Z,7.67
2018-12-01T00:14:22.080Z,7.67
2018-12-01T00:15:22.157Z,7.65
2018-12-01T00:16:22.102Z,7.65
2018-12-01T00:17:22.063Z,7.64
2018-12-01T00:18:22.084Z,7.65
2018-12-01T00:19:22.076Z,7.65
2018-12-01T00:20:22.105Z,7.62
2018-12-01T00:21:22.115Z,7.65
2018-12-01T00:22:22.337Z,7.64
2018-12-01T00:23:22.090Z,7.62
2018-12-01T00:24:22.053Z,7.64
2018-12-01T00:25:22.119Z,7.61
2018-12-01T00:26:22.113Z,7.62
2018-12-01T00:27:22.125Z,7.62
2018-12-01T00:28:22.065Z,7.64
2018-12-01T00:29:22.120Z,7.61
2018-12-01T00:30:22.107Z,7.61
2018-12-01T00:31:22.151Z,7.62
2018-12-01T00:32:22.088Z,7.61
2018-12-01T00:33:22.107Z,7.54
2018-12-01T00:34:22.116Z,7.59
2018-12-01T00:35:22.072Z,7.57
2018-12-01T00:36:22.405Z,7.58
2018-12-01T00:37:22.107Z,7.58
2018-12-01T00:38:22.270Z,7.57
2018-12-01T00:39:22.145Z,7.57
2018-12-01T00:40:22.211Z,7.58
2018-12-01T00:41:22.099Z,7.55
2018-12-01T00:42:22.041Z,7.54
2018-12-01T00:43:22.149Z,7.57
2018-12-01T00:44:22.137Z,7.55
2018-12-01T00:45:22.400Z,7.54
2018-12-01T00:46:22.197Z,7.54
2018-12-01T00:47:22.298Z,7.54
2018-12-01T00:48:22.779Z,7.54
2018-12-01T00:49:22.017Z,7.54
2018-12-01T00:50:22.144Z,7.54
2018-12-01T00:51:22.134Z,7.54
2018-12-01T00:52:22.239Z,7.51
2018-12-01T00:53:22.016Z,7.51
2018-12-01T00:54:22.076Z,7.5
2018-12-01T00:55:22.269Z,7.5
2018-12-01T00:56:22.421Z,7.5
2018-12-01T00:57:22.196Z,7.53
2018-12-01T00:58:22.261Z,7.5
2018-12-01T00:59:22.134Z,7.5
2018-12-01T01:00:22.071Z,7.5
2018-12-01T01:01:22.010Z,7.5
2018-12-01T01:02:22.165Z,7.53
2018-12-01T01:03:22.155Z,7.53
2018-12-01T01:04:22.028Z,7.54
2018-12-01T01:05:22.157Z,7.51
2018-12-01T01:06:22.080Z,7.53
2018-12-01T01:07:22.121Z,7.5
2018-12-01T01:08:22.023Z,7.51
2018-12-01T01:09:22.108Z,7.51
2018-12-01T01:10:22.398Z,7.53
2018-12-01T01:11:22.320Z,7.51
2018-12-01T01:12:22.026Z,7.51
2018-12-01T01:13:22.334Z,7.53
2018-12-01T01:14:22.168Z,7.48
2018-12-01T01:15:22.098Z,7.53
2018-12-01T01:16:22.490Z,7.48
2018-12-01T01:17:22.161Z,7.51
2018-12-01T01:18:22.142Z,7.5
2018-12-01T01:19:22.231Z,7.47
2018-12-01T01:20:22.588Z,7.48
2018-12-01T01:21:22.098Z,7.48
2018-12-01T01:22:22.370Z,7.48
2018-12-01T01:23:25.134Z,7.46
2018-12-01T01:24:22.389Z,7.46
2018-12-01T01:25:22.451Z,7.46
2018-12-01T01:26:22.134Z,7.46
2018-12-01T01:27:22.390Z,7.43
2018-12-01T01:28:22.188Z,7.44
2018-12-01T01:29:22.050Z,7.43
2018-12-01T01:30:22.132Z,7.43
2018-12-01T01:31:22.232Z,7.43
2018-12-01T01:32:22.072Z,7.43
2018-12-01T01:33:22.332Z,7.4
2018-12-01T01:34:22.056Z,7.41
2018-12-01T01:35:22.265Z,7.39
2018-12-01T01:36:22.070Z,7.4
2018-12-01T01:37:22.073Z,7.4
2018-12-01T01:38:22.154Z,7.37
2018-12-01T01:39:22.065Z,7.36
2018-12-01T01:40:22.082Z,7.36
2018-12-01T01:41:22.223Z,7.36
2018-12-01T01:42:21.972Z,7.36
2018-12-01T01:43:22.048Z,7.36
2018-12-01T01:44:22.343Z,7.37
2018-12-01T01:45:22.079Z,7.36
2018-12-01T01:46:22.053Z,7.39
2018-12-01T01:47:22.105Z,7.34
2018-12-01T01:48:22.321Z,7.36
2018-12-01T01:49:22.150Z,7.36
2018-12-01T01:50:21.978Z,7.33
2018-12-01T01:51:21.987Z,7.31
2018-12-01T01:52:22.005Z,7.34
2018-12-01T01:53:21.965Z,7.3
2018-12-01T01:54:22.005Z,7.3
2018-12-01T01:55:22.010Z,7.27
2018-12-01T01:56:21.965Z,7.26
2018-12-01T01:57:21.999Z,7.26
2018-12-01T01:58:22.003Z,7.23
2018-12-01T01:59:22.016Z,7.23
2018-12-01T02:00:22.081Z,7.2
2018-12-01T02:01:22.112Z,7.22
2018-12-01T02:02:21.976Z,7.22
2018-12-01T02:03:21.991Z,7.22
2018-12-01T02:04:22.044Z,7.23
2018-12-01T02:05:21.954Z,7.2
2018-12-01T02:06:21.991Z,7.2
2018-12-01T02:07:22.032Z,7.2
2018-12-01T02:08:22.038Z,7.2
2018-12-01T02:09:22.010Z,7.22
2018-12-01T02:10:22.444Z,7.19
2018-12-01T02:11:21.970Z,7.19
2018-12-01T02:12:21.963Z,7.18
2018-12-01T02:13:22.240Z,7.16
2018-12-01T02:14:21.998Z,7.18
2018-12-01T02:15:22.126Z,7.18
2018-12-01T02:16:22.179Z,7.16
2018-12-01T02:17:22.315Z,7.15
2018-12-01T02:18:22.012Z,7.19
2018-12-01T02:19:22.181Z,7.13
2018-12-01T02:20:22.001Z,7.13
2018-12-01T02:21:22.101Z,7.13
2018-12-01T02:22:21.994Z,7.15
2018-12-01T02:23:22.060Z,7.13
2018-12-01T02:24:21.946Z,7.13
2018-12-01T02:25:22.052Z,7.16
2018-12-01T02:26:22.202Z,7.16
2018-12-01T02:27:21.991Z,7.13
2018-12-01T02:28:21.980Z,7.15
2018-12-01T02:29:22.254Z,7.11
2018-12-01T02:30:22.443Z,7.12
2018-12-01T02:31:21.933Z,7.13
2018-12-01T02:32:21.980Z,7.13
2018-12-01T02:33:21.982Z,7.09
2018-12-01T02:34:22.167Z,7.08
2018-12-01T02:35:22.030Z,7.06
2018-12-01T02:36:22.120Z,7.06
2018-12-01T02:37:22.307Z,7.06
2018-12-01T02:38:22.222Z,7.05
2018-12-01T02:39:22.134Z,7.03
2018-12-01T02:40:22.053Z,7.02
2018-12-01T02:41:22.075Z,7.01
2018-12-01T02:42:22.027Z,7.02
2018-12-01T02:43:22.211Z,6.98
2018-12-01T02:44:22.227Z,6.96
2018-12-01T02:45:21.922Z,6.98
2018-12-01T02:46:21.955Z,6.95
2018-12-01T02:47:21.875Z,6.95
2018-12-01T02:48:21.980Z,6.94
2018-12-01T02:49:21.924Z,6.95
2018-12-01T02:50:21.946Z,6.94
2018-12-01T02:51:22.024Z,6.94
2018-12-01T02:52:22.158Z,6.92
2018-12-01T02:53:22.327Z,6.91
2018-12-01T02:54:22.014Z,6.9
2018-12-01T02:55:22.093Z,6.88
2018-12-01T02:56:22.162Z,6.9
2018-12-01T02:57:22.053Z,6.88
2018-12-01T02:58:22.012Z,6.9
2018-12-01T02:59:22.198Z,6.9
2018-12-01T03:00:22.240Z,6.9
2018-12-01T03:01:22.248Z,6.87
2018-12-01T03:02:22.035Z,6.91
2018-12-01T03:03:22.157Z,6.87
2018-12-01T03:04:22.053Z,6.85
2018-12-01T03:05:22.058Z,6.84
2018-12-01T03:06:22.012Z,6.84
2018-12-01T03:07:22.013Z,6.87
2018-12-01T03:08:22.216Z,6.85
2018-12-01T03:09:21.890Z,6.85
2018-12-01T03:10:22.019Z,6.84
2018-12-01T03:11:22.137Z,6.87
2018-12-01T03:12:22.038Z,6.84
2018-12-01T03:13:22.009Z,6.85
2018-12-01T03:14:21.999Z,6.85
2018-12-01T03:15:21.909Z,6.84
2018-12-01T03:16:22.033Z,6.84
2018-12-01T03:17:21.943Z,6.85
2018-12-01T03:18:22.047Z,6.85
2018-12-01T03:19:21.851Z,6.84
2018-12-01T03:20:22.169Z,6.84
2018-12-01T03:21:22.227Z,6.83
2018-12-01T03:22:22.019Z,6.84
2018-12-01T03:23:22.036Z,6.85
2018-12-01T03:24:21.895Z,6.84
2018-12-01T03:25:21.959Z,6.85
2018-12-01T03:26:21.855Z,6.85
2018-12-01T03:27:22.086Z,6.85
2018-12-01T03:28:22.057Z,6.85
2018-12-01T03:29:22.255Z,6.85
2018-12-01T03:30:21.874Z,6.83
2018-12-01T03:31:21.818Z,6.83
2018-12-01T03:32:21.841Z,6.81
2018-12-01T03:33:21.908Z,6.81
2018-12-01T03:34:21.842Z,6.8
2018-12-01T03:35:21.855Z,6.81
2018-12-01T03:36:22.418Z,6.8
2018-12-01T03:37:21.833Z,6.81
2018-12-01T03:38:22.092Z,6.77
2018-12-01T03:39:21.860Z,6.8
2018-12-01T03:40:22.087Z,6.8
2018-12-01T03:41:21.833Z,6.81
2018-12-01T03:42:21.965Z,6.78
2018-12-01T03:43:21.854Z,6.77
2018-12-01T03:44:21.849Z,6.8
2018-12-01T03:45:21.970Z,6.8
2018-12-01T03:46:21.837Z,6.84
2018-12-01T03:47:21.849Z,6.81
2018-12-01T03:48:21.836Z,6.81
2018-12-01T03:49:21.934Z,6.84
2018-12-01T03:50:21.829Z,6.83
2018-12-01T03:51:21.925Z,6.83
2018-12-01T03:52:22.018Z,6.84
2018-12-01T03:53:21.984Z,6.84
2018-12-01T03:54:21.824Z,6.85
2018-12-01T03:55:21.972Z,6.81
2018-12-01T03:56:21.805Z,6.84
2018-12-01T03:57:21.849Z,6.84
2018-12-01T03:58:22.014Z,6.83
2018-12-01T03:59:21.862Z,6.83
2018-12-01T04:00:22.041Z,6.81
2018-12-01T04:01:22.314Z,6.81
2018-12-01T04:02:21.923Z,6.83
2018-12-01T04:03:21.856Z,6.81
2018-12-01T04:04:21.782Z,6.81
2018-12-01T04:05:21.844Z,6.81
2018-12-01T04:06:21.793Z,6.81
2018-12-01T04:07:21.850Z,6.8
2018-12-01T04:08:21.958Z,6.8
2018-12-01T04:09:21.843Z,6.8
2018-12-01T04:10:21.776Z,6.78
2018-12-01T04:11:22.037Z,6.78
2018-12-01T04:12:22.055Z,6.77
2018-12-01T04:13:21.909Z,6.77
2018-12-01T04:14:22.076Z,6.77
2018-12-01T04:15:21.910Z,6.74
2018-12-01T04:16:21.827Z,6.74
2018-12-01T04:17:21.973Z,6.73
2018-12-01T04:18:21.949Z,6.7
2018-12-01T04:19:21.813Z,6.68
2018-12-01T04:20:21.772Z,6.7
2018-12-01T04:21:21.903Z,6.68
2018-12-01T04:22:21.772Z,6.67
2018-12-01T04:23:21.982Z,6.67
2018-12-01T04:24:21.818Z,6.65
2018-12-01T04:25:21.748Z,6.65
2018-12-01T04:26:21.861Z,6.65
2018-12-01T04:27:21.949Z,6.65
2018-12-01T04:28:21.914Z,6.65
2018-12-01T04:29:22.075Z,6.67
2018-12-01T04:30:22.057Z,6.64
2018-12-01T04:31:21.834Z,6.65
2018-12-01T04:32:22.015Z,6.63
2018-12-01T04:33:22.039Z,6.63
2018-12-01T04:34:21.821Z,6.61
2018-12-01T04:35:21.768Z,6.61
2018-12-01T04:36:21.802Z,6.61
2018-12-01T04:37:21.854Z,6.61
2018-12-01T04:38:21.940Z,6.6
2018-12-01T04:39:21.763Z,6.61
2018-12-01T04:40:21.863Z,6.61
2018-12-01T04:41:21.857Z,6.63
2018-12-01T04:42:21.988Z,6.6
2018-12-01T04:43:21.798Z,6.6
2018-12-01T04:44:21.924Z,6.6
2018-12-01T04:45:21.791Z,6.6
2018-12-01T04:46:22.085Z,6.64
2018-12-01T04:47:21.764Z,6.63
2018-12-01T04:48:21.855Z,6.64
2018-12-01T04:49:21.762Z,6.68
2018-12-01T04:50:21.784Z,6.64
2018-12-01T04:51:21.926Z,6.64
2018-12-01T04:52:21.852Z,6.63
2018-12-01T04:53:21.822Z,6.67
2018-12-01T04:54:21.734Z,6.65
2018-12-01T04:55:22.146Z,6.64
2018-12-01T04:56:21.743Z,6.65
2018-12-01T04:57:22.567Z,6.64
2018-12-01T04:58:21.822Z,6.68
2018-12-01T04:59:21.901Z,6.67
2018-12-01T05:00:21.976Z,6.67
2018-12-01T05:01:21.929Z,6.68
2018-12-01T05:02:21.755Z,6.67
2018-12-01T05:03:21.719Z,6.73
2018-12-01T05:04:21.821Z,6.68
2018-12-01T05:05:21.855Z,6.71
2018-12-01T05:06:21.714Z,6.71
2018-12-01T05:07:21.735Z,6.71
2018-12-01T05:08:21.722Z,6.71
2018-12-01T05:09:21.729Z,6.73
2018-12-01T05:10:21.722Z,6.75
2018-12-01T05:11:21.691Z,6.73
2018-12-01T05:12:21.737Z,6.73
2018-12-01T05:13:21.826Z,6.74
2018-12-01T05:14:21.698Z,6.75
2018-12-01T05:15:22.063Z,6.74
2018-12-01T05:16:21.966Z,6.74
2018-12-01T05:17:21.704Z,6.74
2018-12-01T05:18:21.686Z,6.77
2018-12-01T05:19:21.799Z,6.77
2018-12-01T05:20:21.740Z,6.74
2018-12-01T05:21:21.678Z,6.75
2018-12-01T05:22:21.707Z,6.77
2018-12-01T05:23:21.770Z,6.78
2018-12-01T05:24:21.666Z,6.77
2018-12-01T05:25:21.731Z,6.78
2018-12-01T05:26:21.748Z,6.77
2018-12-01T05:27:22.057Z,6.75
2018-12-01T05:28:21.654Z,6.75
2018-12-01T05:29:21.769Z,6.77
2018-12-01T05:30:21.726Z,6.78
2018-12-01T05:31:21.785Z,6.77
2018-12-01T05:32:21.739Z,6.75
2018-12-01T05:33:21.879Z,6.77
2018-12-01T05:34:21.753Z,6.74
2018-12-01T05:35:21.688Z,6.74
2018-12-01T05:36:21.713Z,6.74
2018-12-01T05:37:22.131Z,6.73
2018-12-01T05:38:22.525Z,6.71
2018-12-01T05:39:21.852Z,6.73
2018-12-01T05:40:21.709Z,6.7
2018-12-01T05:41:21.853Z,6.68
2018-12-01T05:42:21.859Z,6.7
2018-12-01T05:43:21.821Z,6.7
2018-12-01T05:44:21.708Z,6.7
2018-12-01T05:45:21.737Z,6.67
2018-12-01T05:46:21.775Z,6.67
2018-12-01T05:47:21.670Z,6.67
2018-12-01T05:48:21.952Z,6.63
2018-12-01T05:49:22.262Z,6.61
2018-12-01T05:50:21.662Z,6.61
2018-12-01T05:51:21.743Z,6.61
2018-12-01T05:52:21.856Z,6.63
2018-12-01T05:53:21.781Z,6.63
2018-12-01T05:54:21.778Z,6.6
2018-12-01T05:55:21.706Z,6.61
2018-12-01T05:56:21.647Z,6.58
2018-12-01T05:57:21.776Z,6.61
2018-12-01T05:58:21.778Z,6.61
2018-12-01T05:59:21.704Z,6.58
2018-12-01T06:00:22.071Z,6.61
2018-12-01T06:01:21.614Z,6.6
2018-12-01T06:02:21.708Z,6.6
2018-12-01T06:03:22.037Z,6.61
2018-12-01T06:04:21.687Z,6.6
2018-12-01T06:05:21.690Z,6.6
2018-12-01T06:06:21.697Z,6.6
2018-12-01T06:07:21.810Z,6.58
2018-12-01T06:08:21.670Z,6.6
2018-12-01T06:09:21.692Z,6.6
2018-12-01T06:10:22.294Z,6.6
2018-12-01T06:11:21.722Z,6.58
2018-12-01T06:12:21.932Z,6.63
2018-12-01T06:13:21.828Z,6.63
2018-12-01T06:14:21.779Z,6.63
2018-12-01T06:15:21.790Z,6.63
2018-12-01T06:16:22.032Z,6.63
2018-12-01T06:17:21.654Z,6.58
2018-12-01T06:18:21.783Z,6.61
2018-12-01T06:19:21.763Z,6.65
2018-12-01T06:20:21.675Z,6.63
2018-12-01T06:21:21.656Z,6.65
2018-12-01T06:22:21.664Z,6.64
2018-12-01T06:23:21.764Z,6.61
2018-12-01T06:24:21.743Z,6.64
2018-12-01T06:25:21.717Z,6.64
2018-12-01T06:26:21.793Z,6.64
2018-12-01T06:27:21.663Z,6.64
2018-12-01T06:28:21.800Z,6.61
2018-12-01T06:29:22.280Z,6.63
2018-12-01T06:30:21.608Z,6.64
2018-12-01T06:31:21.978Z,6.63
2018-12-01T06:32:21.701Z,6.61
2018-12-01T06:33:21.656Z,6.63
2018-12-01T06:34:21.766Z,6.61
2018-12-01T06:35:21.805Z,6.61
2018-12-01T06:36:21.619Z,6.63
2018-12-01T06:37:21.806Z,6.6
2018-12-01T06:38:21.673Z,6.6
2018-12-01T06:39:21.747Z,6.6
2018-12-01T06:40:21.726Z,6.6
2018-12-01T06:41:21.612Z,6.58
2018-12-01T06:42:21.637Z,6.6
2018-12-01T06:43:21.605Z,6.6
2018-12-01T06:44:21.593Z,6.6
2018-12-01T06:45:21.636Z,6.57
2018-12-01T06:46:21.603Z,6.56
2018-12-01T06:47:21.569Z,6.58
2018-12-01T06:48:21.629Z,6.58
2018-12-01T06:49:21.690Z,6.57
2018-12-01T06:50:21.847Z,6.56
2018-12-01T06:51:21.581Z,6.58
2018-12-01T06:52:21.582Z,6.57
2018-12-01T06:53:21.714Z,6.58
2018-12-01T06:54:21.599Z,6.58
2018-12-01T06:55:21.642Z,6.6
2018-12-01T06:56:21.571Z,6.61
2018-12-01T06:57:21.637Z,6.58
2018-12-01T06:58:21.579Z,6.61
2018-12-01T06:59:21.533Z,6.6
2018-12-01T07:00:21.625Z,6.58
2018-12-01T07:01:21.564Z,6.6
2018-12-01T07:02:21.625Z,6.58
2018-12-01T07:03:21.727Z,6.6
2018-12-01T07:04:21.668Z,6.63
2018-12-01T07:05:22.159Z,6.64
2018-12-01T07:06:21.617Z,6.58
2018-12-01T07:07:21.558Z,6.6
2018-12-01T07:08:21.583Z,6.6
2018-12-01T07:09:21.571Z,6.58
2018-12-01T07:10:21.686Z,6.58
2018-12-01T07:11:21.693Z,6.56
2018-12-01T07:12:21.558Z,6.57
2018-12-01T07:13:21.606Z,6.57
2018-12-01T07:14:21.524Z,6.6
2018-12-01T07:15:21.846Z,6.58
2018-12-01T07:16:21.819Z,6.58
2018-12-01T07:17:21.538Z,6.57
2018-12-01T07:18:21.689Z,6.58
2018-12-01T07:19:21.834Z,6.57
2018-12-01T07:20:21.796Z,6.58
2018-12-01T07:21:21.598Z,6.6
2018-12-01T07:22:21.619Z,6.58
2018-12-01T07:23:21.553Z,6.57
2018-12-01T07:24:21.664Z,6.57
2018-12-01T07:25:21.638Z,6.54
2018-12-01T07:26:21.606Z,6.58
2018-12-01T07:27:21.585Z,6.6
2018-12-01T07:28:21.661Z,6.6
2018-12-01T07:29:21.594Z,6.57
2018-12-01T07:30:21.558Z,6.54
2018-12-01T07:31:21.583Z,6.54
2018-12-01T07:32:21.519Z,6.56
2018-12-01T07:33:21.785Z,6.58
2018-12-01T07:34:21.584Z,6.56
2018-12-01T07:35:21.738Z,6.6
2018-12-01T07:36:21.548Z,6.57
2018-12-01T07:37:21.603Z,6.57
2018-12-01T07:38:21.714Z,6.6
2018-12-01T07:39:21.568Z,6.56
2018-12-01T07:40:21.544Z,6.58
2018-12-01T07:41:21.610Z,6.6
2018-12-01T07:42:21.516Z,6.57
2018-12-01T07:43:21.701Z,6.56
2018-12-01T07:44:21.612Z,6.57
2018-12-01T07:45:21.641Z,6.57
2018-12-01T07:46:21.673Z,6.61
2018-12-01T07:47:21.589Z,6.6
2018-12-01T07:48:21.579Z,6.61
2018-12-01T07:49:21.632Z,6.63
2018-12-01T07:50:21.975Z,6.64
2018-12-01T07:51:21.559Z,6.65
2018-12-01T07:52:22.021Z,6.64
2018-12-01T07:53:21.544Z,6.65
2018-12-01T07:54:21.502Z,6.67
2018-12-01T07:55:21.763Z,6.67
2018-12-01T07:56:21.490Z,6.68
2018-12-01T07:57:21.496Z,6.68
2018-12-01T07:58:21.478Z,6.7
2018-12-01T07:59:21.509Z,6.7
2018-12-01T08:00:21.752Z,6.73
2018-12-01T08:01:21.517Z,6.73
2018-12-01T08:02:21.711Z,6.75
2018-12-01T08:03:21.786Z,6.74
2018-12-01T08:04:21.783Z,6.74
2018-12-01T08:05:21.480Z,6.75
2018-12-01T08:06:21.525Z,6.78
2018-12-01T08:07:21.673Z,6.8
2018-12-01T08:08:21.565Z,6.81
2018-12-01T08:09:21.595Z,6.83
2018-12-01T08:10:21.689Z,6.83
2018-12-01T08:11:21.566Z,6.83
2018-12-01T08:12:21.530Z,6.85
2018-12-01T08:13:21.813Z,6.85
2018-12-01T08:14:21.513Z,6.91
2018-12-01T08:15:21.755Z,6.9
2018-12-01T08:16:21.803Z,6.9
2018-12-01T08:17:21.505Z,6.92
2018-12-01T08:18:21.537Z,6.95
2018-12-01T08:19:21.500Z,6.98
2018-12-01T08:20:21.527Z,6.96
2018-12-01T08:21:21.507Z,7.01
2018-12-01T08:22:21.509Z,7.02
2018-12-01T08:23:21.472Z,7.01
2018-12-01T08:24:21.488Z,7.02
2018-12-01T08:25:21.542Z,7.05
2018-12-01T08:26:21.469Z,7.06
2018-12-01T08:27:21.489Z,7.09
2018-12-01T08:28:21.603Z,7.09
2018-12-01T08:29:21.555Z,7.11
2018-12-01T08:30:21.518Z,7.12
2018-12-01T08:31:21.544Z,7.15
2018-12-01T08:32:21.440Z,7.15
2018-12-01T08:33:21.559Z,7.16
2018-12-01T08:34:21.462Z,7.19
2018-12-01T08:35:21.571Z,7.2
2018-12-01T08:36:21.506Z,7.2
2018-12-01T08:37:21.441Z,7.22
2018-12-01T08:38:21.460Z,7.22
2018-12-01T08:39:21.498Z,7.26
2018-12-01T08:40:21.741Z,7.24
2018-12-01T08:41:21.462Z,7.26
2018-12-01T08:42:21.463Z,7.3
2018-12-01T08:43:21.733Z,7.29
2018-12-01T08:44:21.574Z,7.29
2018-12-01T08:45:21.631Z,7.29
2018-12-01T08:46:21.579Z,7.33
2018-12-01T08:47:21.715Z,7.33
2018-12-01T08:48:21.499Z,7.33
2018-12-01T08:49:21.702Z,7.34
2018-12-01T08:50:21.747Z,7.37
2018-12-01T08:51:21.480Z,7.36
2018-12-01T08:52:21.528Z,7.36
2018-12-01T08:53:21.893Z,7.37
2018-12-01T08:54:21.441Z,7.4
2018-12-01T08:55:21.653Z,7.41
2018-12-01T08:56:22.682Z,7.43
2018-12-01T08:57:21.530Z,7.43
2018-12-01T08:58:21.892Z,7.44
2018-12-01T08:59:21.478Z,7.47
2018-12-01T09:00:21.521Z,7.48
2018-12-01T09:01:22.257Z,7.5
2018-12-01T09:02:21.517Z,7.5
2018-12-01T09:03:21.601Z,7.54
2018-12-01T09:04:21.573Z,7.53
2018-12-01T09:05:21.411Z,7.57
2018-12-01T09:06:21.690Z,7.57
2018-12-01T09:07:21.675Z,7.59
2018-12-01T09:08:21.604Z,7.61
2018-12-01T09:09:21.600Z,7.65
2018-12-01T09:10:21.506Z,7.65
2018-12-01T09:11:22.295Z,7.65
2018-12-01T09:12:21.461Z,7.68
2018-12-01T09:13:21.538Z,7.69
2018-12-01T09:14:21.801Z,7.69
2018-12-01T09:15:21.782Z,7.74
2018-12-01T09:16:21.550Z,7.75
2018-12-01T09:17:22.258Z,7.77
2018-12-01T09:18:21.637Z,7.82
2018-12-01T09:19:21.515Z,7.82
2018-12-01T09:20:21.744Z,7.82
2018-12-01T09:21:21.394Z,7.85
2018-12-01T09:22:21.518Z,7.84
2018-12-01T09:23:21.644Z,7.88
2018-12-01T09:24:21.421Z,7.88
2018-12-01T09:25:22.257Z,7.91
2018-12-01T09:26:21.641Z,7.92
2018-12-01T09:27:22.857Z,7.91
2018-12-01T09:28:21.572Z,7.91
2018-12-01T09:29:21.576Z,7.91
2018-12-01T09:30:21.612Z,7.93
2018-12-01T09:31:21.594Z,7.99
2018-12-01T09:32:21.409Z,7.96
2018-12-01T09:33:21.669Z,8.01
2018-12-01T09:34:21.489Z,8.02
2018-12-01T09:35:21.634Z,8.05
2018-12-01T09:36:21.796Z,8.08
2018-12-01T09:37:21.784Z,8.09
2018-12-01T09:38:21.419Z,8.09
2018-12-01T09:39:21.824Z,8.12
2018-12-01T09:40:21.480Z,8.1
2018-12-01T09:41:21.660Z,8.13
2018-12-01T09:42:24.982Z,8.12
2018-12-01T09:43:21.469Z,8.13
2018-12-01T09:44:21.465Z,8.16
2018-12-01T09:45:21.591Z,8.16
2018-12-01T09:46:21.550Z,8.19
2018-12-01T09:47:21.406Z,8.2
2018-12-01T09:48:21.634Z,8.21
2018-12-01T09:49:21.510Z,8.26
2018-12-01T09:50:21.591Z,8.23
2018-12-01T09:51:21.562Z,8.26
2018-12-01T09:52:21.500Z,8.27
2018-12-01T09:53:21.341Z,8.29
2018-12-01T09:54:23.853Z,8.33
2018-12-01T09:55:21.831Z,8.33
2018-12-01T09:56:21.412Z,8.34
2018-12-01T09:57:21.368Z,8.36
2018-12-01T09:58:21.379Z,8.37
2018-12-01T09:59:21.622Z,8.36
2018-12-01T10:00:21.450Z,8.4
2018-12-01T10:01:21.445Z,8.38
2018-12-01T10:02:21.363Z,8.38
2018-12-01T10:03:21.434Z,8.41
2018-12-01T10:04:21.575Z,8.41
2018-12-01T10:05:21.344Z,8.41
2018-12-01T10:06:21.394Z,8.45
2018-12-01T10:07:21.507Z,8.45
2018-12-01T10:08:21.381Z,8.51
2018-12-01T10:09:21.395Z,8.52
2018-12-01T10:10:21.359Z,8.54
2018-12-01T10:11:21.367Z,8.54
2018-12-01T10:12:21.298Z,8.55
2018-12-01T10:13:21.368Z,8.57
2018-12-01T10:14:21.346Z,8.57
2018-12-01T10:15:21.338Z,8.57
2018-12-01T10:16:21.345Z,8.59
2018-12-01T10:17:21.416Z,8.57
2018-12-01T10:18:21.362Z,8.57
2018-12-01T10:19:21.542Z,8.57
2018-12-01T10:20:21.638Z,8.57
2018-12-01T10:21:21.436Z,8.58
2018-12-01T10:22:21.490Z,8.58
2018-12-01T10:23:21.508Z,8.59
2018-12-01T10:24:21.522Z,8.61
2018-12-01T10:25:21.589Z,8.58
2018-12-01T10:26:21.377Z,8.59
2018-12-01T10:27:21.356Z,8.61
2018-12-01T10:28:21.640Z,8.61
2018-12-01T10:29:21.329Z,8.61
2018-12-01T10:30:21.346Z,8.62
2018-12-01T10:31:21.310Z,8.61
2018-12-01T10:32:21.578Z,8.61
2018-12-01T10:33:21.405Z,8.59
2018-12-01T10:34:21.484Z,8.61
2018-12-01T10:35:21.416Z,8.61
2018-12-01T10:36:22.143Z,8.61
2018-12-01T10:37:21.409Z,8.62
2018-12-01T10:38:21.394Z,8.64
2018-12-01T10:39:21.568Z,8.66
2018-12-01T10:40:21.388Z,8.66
2018-12-01T10:41:21.535Z,8.71
2018-12-01T10:42:21.301Z,8.71
2018-12-01T10:43:21.425Z,8.76
2018-12-01T10:44:21.297Z,8.83
2018-12-01T10:45:21.390Z,8.88
2018-12-01T10:46:21.626Z,8.91
2018-12-01T10:47:21.428Z,8.98
2018-12-01T10:48:21.631Z,8.99
2018-12-01T10:49:21.412Z,9.04
2018-12-01T10:50:21.440Z,9.1
2018-12-01T10:51:21.264Z,9.1
2018-12-01T10:52:21.645Z,9.14
2018-12-01T10:53:21.355Z,9.16
2018-12-01T10:54:21.363Z,9.14
2018-12-01T10:55:21.864Z,9.14
2018-12-01T10:56:21.411Z,9.17
2018-12-01T10:57:21.756Z,9.13
2018-12-01T10:58:21.496Z,9.14
2018-12-01T10:59:21.355Z,9.14
2018-12-01T11:00:21.373Z,9.14
2018-12-01T11:01:21.683Z,9.14
2018-12-01T11:02:21.521Z,9.11
2018-12-01T11:03:21.430Z,9.11
2018-12-01T11:04:21.303Z,9.11
2018-12-01T11:05:21.396Z,9.1
2018-12-01T11:06:21.488Z,9.11
2018-12-01T11:07:21.392Z,9.09
2018-12-01T11:08:21.492Z,9.09
2018-12-01T11:09:21.478Z,9.13
2018-12-01T11:10:21.353Z,9.1
2018-12-01T11:11:21.479Z,9.1
2018-12-01T11:12:21.424Z,9.11
2018-12-01T11:13:21.324Z,9.11
2018-12-01T11:14:21.442Z,9.13
2018-12-01T11:15:21.355Z,9.13
2018-12-01T11:16:21.412Z,9.13
2018-12-01T11:17:21.322Z,9.13
2018-12-01T11:18:21.412Z,9.16
2018-12-01T11:19:21.642Z,9.19
2018-12-01T11:20:21.266Z,9.17
2018-12-01T11:21:21.241Z,9.2
2018-12-01T11:22:21.619Z,9.2
2018-12-01T11:23:21.281Z,9.19
2018-12-01T11:24:21.278Z,9.26
2018-12-01T11:25:22.089Z,9.27
2018-12-01T11:26:21.514Z,9.29
2018-12-01T11:27:21.472Z,9.33
2018-12-01T11:28:21.497Z,9.35
2018-12-01T11:29:21.346Z,9.41
2018-12-01T11:30:21.269Z,9.49
2018-12-01T11:31:22.407Z,9.52
2018-12-01T11:32:21.458Z,9.54
2018-12-01T11:33:21.315Z,9.52
2018-12-01T11:34:21.367Z,9.55
2018-12-01T11:35:21.616Z,9.55
2018-12-01T11:36:21.243Z,9.52
2018-12-01T11:37:21.264Z,9.55
2018-12-01T11:38:21.293Z,9.55
2018-12-01T11:39:21.265Z,9.57
2018-12-01T11:40:21.313Z,9.57
2018-12-01T11:41:21.219Z,9.61
2018-12-01T11:42:21.257Z,9.65
2018-12-01T11:43:21.279Z,9.7
2018-12-01T11:44:21.283Z,9.81
2018-12-01T11:45:21.204Z,9.82
2018-12-01T11:46:21.503Z,9.92
2018-12-01T11:47:21.244Z,9.96
2018-12-01T11:48:21.211Z,9.97
2018-12-01T11:49:21.216Z,9.99
2018-12-01T11:50:21.187Z,9.99
2018-12-01T11:51:21.280Z,10
2018-12-01T11:52:21.410Z,9.99
2018-12-01T11:53:21.298Z,10
2018-12-01T11:54:21.357Z,10
2018-12-01T11:55:24.149Z,9.99
2018-12-01T11:56:21.489Z,9.94
2018-12-01T11:57:21.288Z,9.93
2018-12-01T11:58:21.333Z,9.9
2018-12-01T11:59:21.406Z,9.88
2018-12-01T12:00:21.186Z,9.85
2018-12-01T12:01:21.181Z,9.82
2018-12-01T12:02:21.266Z,9.82
2018-12-01T12:03:21.257Z,9.81
2018-12-01T12:04:21.190Z,9.82
2018-12-01T12:05:21.374Z,9.82
2018-12-01T12:06:21.449Z,9.79
2018-12-01T12:07:21.362Z,9.79
2018-12-01T12:08:21.219Z,9.79
2018-12-01T12:09:21.276Z,9.76
2018-12-01T12:10:21.302Z,9.78
2018-12-01T12:11:21.390Z,9.78
2018-12-01T12:12:21.285Z,9.79
2018-12-01T12:13:21.370Z,9.81
2018-12-01T12:14:21.769Z,9.82
2018-12-01T12:15:21.248Z,9.83
2018-12-01T12:16:21.304Z,9.83
2018-12-01T12:17:21.325Z,9.83
2018-12-01T12:18:21.216Z,9.82
2018-12-01T12:19:21.367Z,9.82
2018-12-01T12:20:21.543Z,9.83
2018-12-01T12:21:21.190Z,9.85
2018-12-01T12:22:21.391Z,9.83
2018-12-01T12:23:21.410Z,9.85
2018-12-01T12:24:21.185Z,9.85
2018-12-01T12:25:21.791Z,9.85
2018-12-01T12:26:21.196Z,9.83
2018-12-01T12:27:21.205Z,9.86
2018-12-01T12:28:21.157Z,9.85
2018-12-01T12:29:21.371Z,9.82
2018-12-01T12:30:26.326Z,9.83
2018-12-01T12:31:21.216Z,9.83
2018-12-01T12:32:21.287Z,9.85
2018-12-01T12:33:21.318Z,9.86
2018-12-01T12:34:21.605Z,9.83
2018-12-01T12:35:21.177Z,9.89
2018-12-01T12:36:21.222Z,9.89
2018-12-01T12:37:21.293Z,9.9
2018-12-01T12:38:21.159Z,9.93
2018-12-01T12:39:21.208Z,9.96
2018-12-01T12:40:21.549Z,9.99
2018-12-01T12:41:21.271Z,9.97
2018-12-01T12:42:21.223Z,10
2018-12-01T12:43:21.232Z,9.97
2018-12-01T12:44:21.455Z,9.97
2018-12-01T12:45:21.242Z,9.96
2018-12-01T12:46:22.302Z,9.97
2018-12-01T12:47:21.225Z,10.02
2018-12-01T12:48:21.311Z,10.02
2018-12-01T12:49:21.130Z,10.06
2018-12-01T12:50:21.228Z,10.1
2018-12-01T12:51:21.151Z,10.14
2018-12-01T12:52:21.454Z,10.14
2018-12-01T12:53:21.354Z,10.16
2018-12-01T12:54:21.107Z,10.16
2018-12-01T12:55:21.948Z,10.19
2018-12-01T12:56:21.208Z,10.23
2018-12-01T12:57:21.255Z,10.23
2018-12-01T12:58:21.256Z,10.23
2018-12-01T12:59:21.185Z,10.21
2018-12-01T13:00:21.985Z,10.2
2018-12-01T13:01:21.217Z,10.2
2018-12-01T13:02:21.291Z,10.23
2018-12-01T13:03:21.213Z,10.23
2018-12-01T13:04:21.157Z,10.21
2018-12-01T13:05:21.349Z,10.23
2018-12-01T13:06:21.192Z,10.24
2018-12-01T13:07:21.120Z,10.23
2018-12-01T13:08:21.084Z,10.25
2018-12-01T13:09:21.222Z,10.24
2018-12-01T13:10:21.251Z,10.21
2018-12-01T13:11:21.166Z,10.2
2018-12-01T13:12:21.105Z,10.21
2018-12-01T13:13:21.092Z,10.21
2018-12-01T13:14:21.106Z,10.23
2018-12-01T13:15:21.121Z,10.2
2018-12-01T13:16:21.119Z,10.2
2018-12-01T13:17:21.210Z,10.16
2018-12-01T13:18:21.165Z,10.16
2018-12-01T13:19:23.403Z,10.13
2018-12-01T13:20:21.201Z,10.1
2018-12-01T13:21:21.128Z,10.09